F/V L'eden — FO4557 — position and weather

sailwx.info

Track history (hours):
 
Tides and Currents Weather Stations Pressure Air Temp Water Temp Dewpoint Dewpoint Depression Visibility Wind Speed Wind Dir Waves Ship Positions

F/V L'eden

Last reported at 2018-Feb-25 07:59 UTC. Time now 2018-Feb-25 08:07 UTC.
Position N 46°30' W 001°47'.

Length 12 m.

Type: Fishing. MMSI: 228112000.

Date/timePositionNaut miles runAvg speedWind from/ knotsBaromVisibWave heightAir tempDewpointWater temp
2018-Feb-25 07:59N 46°30' W 001°47'3 7.1
2018-Feb-25 07:30N 46°27' W 001°49'4 7.8
2018-Feb-25 07:00N 46°23' W 001°52'1 0.2
2018-Feb-25 01:54N 46°22' W 001°52'4 8.7
2018-Feb-25 01:29N 46°25' W 001°50'4 8.6
2018-Feb-25 01:00N 46°29' W 001°47'1 0.0
2018-Feb-24 12:46N 46°30' W 001°47'0 0.5
2018-Feb-24 12:30N 46°30' W 001°47'4 7.1
2018-Feb-24 12:00N 46°27' W 001°49'13 1.5
2018-Feb-24 03:19N 46°14' W 001°53'2 3.4
2018-Feb-24 02:51N 46°15' W 001°54'2 5.6
2018-Feb-24 02:24N 46°18' W 001°53'3 8.7
2018-Feb-24 02:00N 46°21' W 001°52'4 8.6
2018-Feb-24 01:30N 46°25' W 001°50'4 8.5
2018-Feb-24 01:01N 46°29' W 001°48'1 0.2
2018-Feb-23 18:50N 46°30' W 001°47'0 0.0
2018-Feb-23 17:33N 46°30' W 001°47'0 0.1
2018-Feb-23 17:30N 46°30' W 001°47'0 0.0
2018-Feb-23 16:27N 46°30' W 001°47'0 0.0
2018-Feb-23 15:49N 46°30' W 001°47'0 0.0
2018-Feb-23 14:56N 46°30' W 001°47'0 0.0
2018-Feb-23 11:02N 46°30' W 001°47'0 0.0
2018-Feb-23 11:00N 46°30' W 001°47'0 0.1
2018-Feb-23 10:30N 46°30' W 001°47'4 7.7
2018-Feb-23 10:00N 46°26' W 001°49'6 0.7
2018-Feb-23 01:56N 46°21' W 001°51'4 8.6
2018-Feb-23 01:30N 46°24' W 001°49'4 8.6
2018-Feb-23 01:00N 46°28' W 001°48'1 0.3
2018-Feb-22 19:14N 46°30' W 001°47'0 0.1
2018-Feb-22 18:59N 46°30' W 001°47'0 0.0
2018-Feb-22 18:29N 46°30' W 001°47'0 0.0
2018-Feb-22 11:30N 46°30' W 001°47'0 0.3
2018-Feb-22 11:00N 46°30' W 001°48'4 7.7
2018-Feb-22 10:30N 46°26' W 001°50'11 1.4
2018-Feb-22 02:37N 46°15' W 001°52'2 8.4
2018-Feb-22 02:24N 46°17' W 001°52'3 8.5
2018-Feb-22 01:59N 46°20' W 001°50'4 8.6
2018-Feb-22 01:30N 46°24' W 001°49'4 8.5
2018-Feb-22 01:00N 46°29' W 001°48'1 0.2
2018-Feb-21 17:59N 46°30' W 001°47'0 0.0
2018-Feb-21 13:00N 46°30' W 001°47'0 0.0
2018-Feb-21 12:10N 46°30' W 001°47'0 0.0
2018-Feb-21 11:57N 46°30' W 001°47'1 2.5
2018-Feb-21 11:30N 46°29' W 001°48'4 8.2
2018-Feb-21 11:00N 46°25' W 001°51'6 0.7
2018-Feb-21 02:09N 46°19' W 001°51'1 8.6
2018-Feb-21 02:00N 46°20' W 001°51'4 8.8
2018-Feb-21 01:29N 46°25' W 001°49'4 8.8
2018-Feb-21 01:00N 46°29' W 001°48'1 0.1
2018-Feb-20 11:57N 46°30' W 001°47'1 2.3
2018-Feb-20 11:29N 46°29' W 001°48'4 8.3
2018-Feb-20 11:00N 46°25' W 001°49'6 0.7
2018-Feb-20 02:25N 46°19' W 001°52'3 7.9
2018-Feb-20 02:00N 46°22' W 001°50'4 8.3
2018-Feb-20 01:30N 46°26' W 001°49'4 7.4
2018-Feb-20 01:00N 46°30' W 001°48'0 0.0
2018-Feb-19 16:39N 46°30' W 001°47'0 0.0
2018-Feb-19 16:30N 46°30' W 001°47'0 0.0
2018-Feb-19 15:27N 46°30' W 001°47'0 0.0
2018-Feb-19 12:11N 46°30' W 001°47'0 0.0
2018-Feb-19 11:56N 46°30' W 001°47'0 0.3
2018-Feb-19 11:30N 46°30' W 001°47'2 3.9
2018-Feb-19 11:00N 46°28' W 001°48'5 8.8
2018-Feb-19 10:24N 46°23' W 001°52'6 0.7
2018-Feb-19 02:33N 46°18' W 001°55'1 7.7
2018-Feb-19 02:21N 46°20' W 001°54'3 7.7
2018-Feb-19 02:00N 46°22' W 001°53'4 7.7
2018-Feb-19 01:30N 46°25' W 001°50'4 7.9
2018-Feb-19 01:00N 46°29' W 001°48'1 0.1
2018-Feb-18 14:02N 46°30' W 001°47'0 0.0
2018-Feb-18 14:00N 46°30' W 001°47'1 1.6
2018-Feb-18 13:31N 46°29' W 001°48'4 9.0
2018-Feb-18 13:01N 46°25' W 001°50'5 0.5
2018-Feb-18 02:10N 46°20' W 001°51'1 7.9
2018-Feb-18 02:00N 46°21' W 001°51'4 7.9
2018-Feb-18 01:31N 46°25' W 001°49'4 8.2
2018-Feb-18 01:01N 46°29' W 001°48'1 0.2
2018-Feb-17 18:35N 46°30' W 001°47'0 0.0
2018-Feb-17 18:29N 46°30' W 001°47'0 0.0
2018-Feb-17 16:48N 46°30' W 001°47'0 0.0
2018-Feb-17 14:43N 46°30' W 001°47'0 0.5
2018-Feb-17 14:28N 46°30' W 001°47'1 1.1
2018-Feb-17 14:00N 46°29' W 001°48'4 8.2
2018-Feb-17 13:30N 46°25' W 001°48'7 0.7
2018-Feb-17 02:27N 46°19' W 001°54'4 7.7
2018-Feb-17 01:59N 46°23' W 001°52'4 7.7
2018-Feb-17 01:30N 46°26' W 001°49'4 7.7
2018-Feb-17 01:00N 46°29' W 001°47'1 0.1
2018-Feb-16 15:53N 46°30' W 001°47'0 0.0
2018-Feb-16 15:14N 46°30' W 001°47'0 0.0
2018-Feb-16 14:28N 46°30' W 001°47'0 0.0
2018-Feb-16 12:17N 46°30' W 001°47'0 0.0
2018-Feb-16 11:55N 46°30' W 001°47'0 0.0
2018-Feb-16 11:08N 46°30' W 001°47'0 0.7
2018-Feb-16 10:58N 46°30' W 001°47'2 3.2
2018-Feb-16 10:30N 46°28' W 001°47'4 8.6
2018-Feb-16 10:00N 46°24' W 001°50'6 0.8
2018-Feb-16 02:28N 46°19' W 001°55'4 8.4
2018-Feb-16 02:00N 46°23' W 001°52'4 8.3
2018-Feb-16 01:30N 46°26' W 001°49'4 7.5
2018-Feb-16 01:00N 46°30' W 001°48'0 0.0
2018-Feb-15 17:40N 46°30' W 001°47'0 0.0
2018-Feb-15 11:10N 46°30' W 001°47'0 0.0
2018-Feb-15 11:00N 46°30' W 001°47'2 4.8
2018-Feb-15 10:30N 46°28' W 001°49'  
Track history (hours):
 
Tides and Currents Weather Stations Pressure Air Temp Water Temp Dewpoint Dewpoint Depression Visibility Wind Speed Wind Dir Waves Ship Positions

F/V L'eden

Last reported at 2018-Feb-25 07:59 UTC. Time now 2018-Feb-25 08:07 UTC.
Position N 46°30' W 001°47'.

Length 12 m.

Type: Fishing. MMSI: 228112000.

Date/timePositionNaut miles runAvg speedWind from/ knotsBaromVisibWave heightAir tempDewpointWater temp
2018-Feb-25 07:59N 46°30' W 001°47'3 7.1
2018-Feb-25 07:30N 46°27' W 001°49'4 7.8
2018-Feb-25 07:00N 46°23' W 001°52'1 0.2
2018-Feb-25 01:54N 46°22' W 001°52'4 8.7
2018-Feb-25 01:29N 46°25' W 001°50'4 8.6
2018-Feb-25 01:00N 46°29' W 001°47'1 0.0
2018-Feb-24 12:46N 46°30' W 001°47'0 0.5
2018-Feb-24 12:30N 46°30' W 001°47'4 7.1
2018-Feb-24 12:00N 46°27' W 001°49'13 1.5
2018-Feb-24 03:19N 46°14' W 001°53'2 3.4
2018-Feb-24 02:51N 46°15' W 001°54'2 5.6
2018-Feb-24 02:24N 46°18' W 001°53'3 8.7
2018-Feb-24 02:00N 46°21' W 001°52'4 8.6
2018-Feb-24 01:30N 46°25' W 001°50'4 8.5
2018-Feb-24 01:01N 46°29' W 001°48'1 0.2
2018-Feb-23 18:50N 46°30' W 001°47'0 0.0
2018-Feb-23 17:33N 46°30' W 001°47'0 0.1
2018-Feb-23 17:30N 46°30' W 001°47'0 0.0
2018-Feb-23 16:27N 46°30' W 001°47'0 0.0
2018-Feb-23 15:49N 46°30' W 001°47'0 0.0
2018-Feb-23 14:56N 46°30' W 001°47'0 0.0
2018-Feb-23 11:02N 46°30' W 001°47'0 0.0
2018-Feb-23 11:00N 46°30' W 001°47'0 0.1
2018-Feb-23 10:30N 46°30' W 001°47'4 7.7
2018-Feb-23 10:00N 46°26' W 001°49'6 0.7
2018-Feb-23 01:56N 46°21' W 001°51'4 8.6
2018-Feb-23 01:30N 46°24' W 001°49'4 8.6
2018-Feb-23 01:00N 46°28' W 001°48'1 0.3
2018-Feb-22 19:14N 46°30' W 001°47'0 0.1
2018-Feb-22 18:59N 46°30' W 001°47'0 0.0
2018-Feb-22 18:29N 46°30' W 001°47'0 0.0
2018-Feb-22 11:30N 46°30' W 001°47'0 0.3
2018-Feb-22 11:00N 46°30' W 001°48'4 7.7
2018-Feb-22 10:30N 46°26' W 001°50'11 1.4
2018-Feb-22 02:37N 46°15' W 001°52'2 8.4
2018-Feb-22 02:24N 46°17' W 001°52'3 8.5
2018-Feb-22 01:59N 46°20' W 001°50'4 8.6
2018-Feb-22 01:30N 46°24' W 001°49'4 8.5
2018-Feb-22 01:00N 46°29' W 001°48'1 0.2
2018-Feb-21 17:59N 46°30' W 001°47'0 0.0
2018-Feb-21 13:00N 46°30' W 001°47'0 0.0
2018-Feb-21 12:10N 46°30' W 001°47'0 0.0
2018-Feb-21 11:57N 46°30' W 001°47'1 2.5
2018-Feb-21 11:30N 46°29' W 001°48'4 8.2
2018-Feb-21 11:00N 46°25' W 001°51'6 0.7
2018-Feb-21 02:09N 46°19' W 001°51'1 8.6
2018-Feb-21 02:00N 46°20' W 001°51'4 8.8
2018-Feb-21 01:29N 46°25' W 001°49'4 8.8
2018-Feb-21 01:00N 46°29' W 001°48'1 0.1
2018-Feb-20 11:57N 46°30' W 001°47'1 2.3
2018-Feb-20 11:29N 46°29' W 001°48'4 8.3
2018-Feb-20 11:00N 46°25' W 001°49'6 0.7
2018-Feb-20 02:25N 46°19' W 001°52'3 7.9
2018-Feb-20 02:00N 46°22' W 001°50'4 8.3
2018-Feb-20 01:30N 46°26' W 001°49'4 7.4
2018-Feb-20 01:00N 46°30' W 001°48'0 0.0
2018-Feb-19 16:39N 46°30' W 001°47'0 0.0
2018-Feb-19 16:30N 46°30' W 001°47'0 0.0
2018-Feb-19 15:27N 46°30' W 001°47'0 0.0
2018-Feb-19 12:11N 46°30' W 001°47'0 0.0
2018-Feb-19 11:56N 46°30' W 001°47'0 0.3
2018-Feb-19 11:30N 46°30' W 001°47'2 3.9
2018-Feb-19 11:00N 46°28' W 001°48'5 8.8
2018-Feb-19 10:24N 46°23' W 001°52'6 0.7
2018-Feb-19 02:33N 46°18' W 001°55'1 7.7
2018-Feb-19 02:21N 46°20' W 001°54'3 7.7
2018-Feb-19 02:00N 46°22' W 001°53'4 7.7
2018-Feb-19 01:30N 46°25' W 001°50'4 7.9
2018-Feb-19 01:00N 46°29' W 001°48'1 0.1
2018-Feb-18 14:02N 46°30' W 001°47'0 0.0
2018-Feb-18 14:00N 46°30' W 001°47'1 1.6
2018-Feb-18 13:31N 46°29' W 001°48'4 9.0
2018-Feb-18 13:01N 46°25' W 001°50'5 0.5
2018-Feb-18 02:10N 46°20' W 001°51'1 7.9
2018-Feb-18 02:00N 46°21' W 001°51'4 7.9
2018-Feb-18 01:31N 46°25' W 001°49'4 8.2
2018-Feb-18 01:01N 46°29' W 001°48'1 0.2
2018-Feb-17 18:35N 46°30' W 001°47'0 0.0
2018-Feb-17 18:29N 46°30' W 001°47'0 0.0
2018-Feb-17 16:48N 46°30' W 001°47'0 0.0
2018-Feb-17 14:43N 46°30' W 001°47'0 0.5
2018-Feb-17 14:28N 46°30' W 001°47'1 1.1
2018-Feb-17 14:00N 46°29' W 001°48'4 8.2
2018-Feb-17 13:30N 46°25' W 001°48'7 0.7
2018-Feb-17 02:27N 46°19' W 001°54'4 7.7
2018-Feb-17 01:59N 46°23' W 001°52'4 7.7
2018-Feb-17 01:30N 46°26' W 001°49'4 7.7
2018-Feb-17 01:00N 46°29' W 001°47'1 0.1
2018-Feb-16 15:53N 46°30' W 001°47'0 0.0
2018-Feb-16 15:14N 46°30' W 001°47'0 0.0
2018-Feb-16 14:28N 46°30' W 001°47'0 0.0
2018-Feb-16 12:17N 46°30' W 001°47'0 0.0
2018-Feb-16 11:55N 46°30' W 001°47'0 0.0
2018-Feb-16 11:08N 46°30' W 001°47'0 0.7
2018-Feb-16 10:58N 46°30' W 001°47'2 3.2
2018-Feb-16 10:30N 46°28' W 001°47'4 8.6
2018-Feb-16 10:00N 46°24' W 001°50'6 0.8
2018-Feb-16 02:28N 46°19' W 001°55'4 8.4
2018-Feb-16 02:00N 46°23' W 001°52'4 8.3
2018-Feb-16 01:30N 46°26' W 001°49'4 7.5
2018-Feb-16 01:00N 46°30' W 001°48'0 0.0
2018-Feb-15 17:40N 46°30' W 001°47'0 0.0
2018-Feb-15 11:10N 46°30' W 001°47'0 0.0
2018-Feb-15 11:00N 46°30' W 001°47'2 4.8
2018-Feb-15 10:30N 46°28' W 001°49'  

Dump ship's entire track history